Terminal Aerodrome Forecast
Issued by NWS Wilmington, NC

Home | Current Version | Previous Version | Text Only | Print | Product List | Glossary On
Versions: 1 2 3 4 5 6 7 8 9 10 11 12 13 14 15 16
000
FTUS42 KILM 300526
TAFLBT
TAF
KLBT 300526Z 3006/3106 15003KT P6SM SKC
     FM300700 VRB02KT 6SM BR BKN020
     FM301000 VRB02KT 4SM BR BKN012
     FM301400 12005KT P6SM SCT020 BKN035
     FM301800 14007KT P6SM VCSH SCT040 BKN250=

USA.gov is the U.S. government's official web portal to all federal, state and local government web resources and services.